Northway Airport Northway US
ICAO: PAOR
IATA:
Category: Medium
Scheduled Services:

Elevation: 1715 ft
TransAlt. 18000 ft.

Airport Communications:
ASOS:135.4
ANCHORAGE CNTR:126.55
CTAF:123.6
RDO:122.2
SUAS INFO SVC:125.3

PAOR Zoom In..

If you have problems with the map follow the link
https://www.worldairports.se/pages/airport.php?
ICAO=PAOR

Runways:

(A) RW 05 length 5100 ft width 100 ft
---- / hdg 52

(B) RW 23 length 5100 ft width 100 ft
---- / hdg 232

Location; PAOR
Day. 21 / Time. 08.53 Zulu
* Altimeter: 29.67
* Temperature: -03° c. -26.6°f.
* Wind from: 230° Speed 03 kn.
Dewpoint: -03° c.
Visibility: 10 Statute Miles.
Clouds: Broken 12000 ft.
Clouds: Overcast 16000 ft.

PAOR 210853Z 23003KT 10SM BKN120 OVC160 M03/M03 A2967 RMK AO2 SLP072 I3001 T10281028 400891039 56006


Wind From 230°
Speed 03 kn.

 
 
jpsmedia.com for Web Design worldairports.se 2018   terms of use